Hai Run — 9LU2533 — position and weather

sailwx.info

Track history (hours):
 
Tides and Currents Weather Stations Pressure Air Temp Water Temp Dewpoint Dewpoint Depression Visibility Wind Speed Wind Dir Waves Ship Positions

Hai Run

Last reported at 2018-Apr-22 02:09 UTC. Time now 2018-Apr-22 06:31 UTC.
Position N 35°03' E 129°04'.

Length 78 m; draft 4.9 m.

Type: Cargo ship. MMSI: 667001730.

Date/timePositionNaut miles runAvg speedWind from/ knotsBaromVisibWave heightAir tempDewpointWater temp
2018-Apr-22 02:09N 35°03' E 129°04'0 0.0
2018-Apr-21 06:41N 35°03' E 129°04'0 0.0
2018-Apr-21 06:20N 35°03' E 129°04'0 0.0
2018-Apr-21 05:59N 35°03' E 129°04'0 0.0
2018-Apr-21 04:53N 35°03' E 129°04'0 0.0
2018-Apr-21 04:29N 35°03' E 129°04'0 0.0
2018-Apr-21 03:53N 35°03' E 129°04'0 0.0
2018-Apr-21 03:14N 35°03' E 129°04'0 0.2
2018-Apr-21 02:56N 35°03' E 129°04'0 0.0
2018-Apr-21 02:23N 35°03' E 129°04'0 0.0
2018-Apr-21 01:53N 35°03' E 129°04'0 0.0
2018-Apr-21 01:26N 35°03' E 129°04'0 0.0
2018-Apr-21 00:50N 35°03' E 129°04'0 0.0
2018-Apr-21 00:29N 35°03' E 129°04'0 0.0
2018-Apr-20 23:32N 35°03' E 129°04'0 0.0
2018-Apr-20 23:17N 35°03' E 129°04'0 0.0
2018-Apr-20 21:56N 35°03' E 129°04'0 0.0
2018-Apr-20 21:20N 35°03' E 129°04'0 0.0
2018-Apr-20 20:53N 35°03' E 129°04'0 0.0
2018-Apr-20 20:29N 35°03' E 129°04'0 0.0
2018-Apr-20 19:56N 35°03' E 129°04'0 0.0
2018-Apr-20 19:23N 35°03' E 129°04'0 0.0
2018-Apr-20 18:59N 35°03' E 129°04'0 0.0
2018-Apr-20 18:26N 35°03' E 129°04'0 0.0
2018-Apr-20 17:59N 35°03' E 129°04'0 0.0
2018-Apr-20 17:29N 35°03' E 129°04'0 0.0
2018-Apr-20 16:47N 35°03' E 129°04'0 0.0
2018-Apr-20 16:29N 35°03' E 129°04'0 0.0
2018-Apr-20 14:23N 35°03' E 129°04'0 0.0
2018-Apr-20 13:59N 35°03' E 129°04'0 0.0
2018-Apr-20 13:26N 35°03' E 129°04'0 0.1
2018-Apr-20 12:53N 35°03' E 129°04'0 0.0
2018-Apr-20 12:29N 35°03' E 129°04'0 0.0
2018-Apr-20 11:59N 35°03' E 129°04'0 0.1
2018-Apr-20 11:29N 35°03' E 129°04'0 0.1
2018-Apr-20 10:59N 35°03' E 129°04'0 0.0
2018-Apr-20 10:26N 35°03' E 129°04'0 0.1
2018-Apr-20 10:00N 35°03' E 129°04'54 9.6
2018-Apr-20 04:23N 34°09' E 129°06'4 9.4
2018-Apr-20 04:00N 34°05' E 129°06'5 9.5
2018-Apr-20 03:30N 34°01' E 129°07'5 9.6
2018-Apr-20 03:00N 33°56' E 129°09'5 9.6
2018-Apr-20 02:30N 33°51' E 129°10'5 9.6
2018-Apr-20 02:00N 33°47' E 129°11'5 9.6
2018-Apr-20 01:30N 33°42' E 129°12'5 9.4
2018-Apr-20 01:00N 33°37' E 129°12'8 9.3
2018-Apr-20 00:09N 33°29' E 129°13'1 9.3
2018-Apr-20 00:00N 33°28' E 129°14'5 9.3
2018-Apr-19 23:30N 33°23' E 129°14'5 9.2
2018-Apr-19 22:57N 33°18' E 129°15'  
2018-Apr-15 16:42N 33°14' E 132°02'2 9.5
2018-Apr-15 16:30N 33°16' E 132°01'5 9.8
2018-Apr-15 15:58N 33°20' E 131°58'4 7.7
2018-Apr-15 15:30N 33°24' E 131°59'611.2
2018-Apr-15 15:01N 33°28' E 132°04'611.2
2018-Apr-15 14:30N 33°31' E 132°09'1310.5
2018-Apr-15 13:16N 33°40' E 132°21'3 9.8
2018-Apr-15 12:55N 33°42' E 132°24'4 9.7
2018-Apr-15 12:30N 33°45' E 132°27'5 9.5
2018-Apr-15 12:00N 33°49' E 132°31'5 9.3
2018-Apr-15 11:27N 33°53' E 132°35'4 8.5
2018-Apr-15 10:58N 33°55' E 132°39'4 7.9
2018-Apr-15 10:30N 33°57' E 132°42'4 8.0
2018-Apr-15 10:00N 34°01' E 132°45'2 0.1
2018-Apr-14 17:03N 34°01' E 132°47'1 9.0
2018-Apr-14 16:59N 34°01' E 132°46'4 8.6
2018-Apr-14 16:30N 33°58' E 132°43'4 8.5
2018-Apr-14 16:00N 33°55' E 132°39'4 8.8
2018-Apr-14 15:30N 33°52' E 132°36'5 9.0
2018-Apr-14 14:58N 33°49' E 132°31'4 9.2
2018-Apr-14 14:30N 33°47' E 132°27'6 9.4
2018-Apr-14 13:51N 33°44' E 132°20'4 9.6
2018-Apr-14 13:28N 33°43' E 132°16'1710.0
2018-Apr-14 11:48N 33°43' E 131°56'310.4
2018-Apr-14 11:30N 33°44' E 131°52'510.0
2018-Apr-14 11:00N 33°45' E 131°46'5 9.7
2018-Apr-14 10:30N 33°46' E 131°41'5 9.3
2018-Apr-14 10:00N 33°47' E 131°35'5 9.6
2018-Apr-14 09:30N 33°48' E 131°30'5 9.7
2018-Apr-14 09:00N 33°49' E 131°24'5 9.4
2018-Apr-14 08:30N 33°50' E 131°18'5 9.0
2018-Apr-14 08:00N 33°51' E 131°13'5 8.9
2018-Apr-14 07:29N 33°53' E 131°08'5 9.4
2018-Apr-14 07:00N 33°56' E 131°04'5 9.2
2018-Apr-14 06:30N 33°58' E 130°59'611.4
2018-Apr-14 06:00N 33°54' E 130°54'510.3
2018-Apr-14 05:30N 33°58' E 130°50'510.0
2018-Apr-14 05:00N 33°58' E 130°44'510.5
2018-Apr-14 04:30N 33°58' E 130°37'510.4
2018-Apr-14 04:00N 33°57' E 130°31'510.3
2018-Apr-14 03:31N 33°57' E 130°25'510.1
2018-Apr-14 03:01N 33°55' E 130°19'510.2
2018-Apr-14 02:30N 33°52' E 130°14'510.3
2018-Apr-14 02:00N 33°49' E 130°09'510.3
2018-Apr-14 01:30N 33°46' E 130°04'610.6
2018-Apr-14 00:59N 33°42' E 129°59'300 8.0
2018-Apr-12 11:13N 31°41' E 124°32'73 9.6
2018-Apr-12 03:34N 31°14' E 123°13'111.2
2018-Apr-12 03:31N 31°14' E 123°12'5 9.9
2018-Apr-12 03:00N 31°11' E 123°07'  
Track history (hours):
 
Tides and Currents Weather Stations Pressure Air Temp Water Temp Dewpoint Dewpoint Depression Visibility Wind Speed Wind Dir Waves Ship Positions

Hai Run

Last reported at 2018-Apr-22 02:09 UTC. Time now 2018-Apr-22 06:31 UTC.
Position N 35°03' E 129°04'.

Length 78 m; draft 4.9 m.

Type: Cargo ship. MMSI: 667001730.

Date/timePositionNaut miles runAvg speedWind from/ knotsBaromVisibWave heightAir tempDewpointWater temp
2018-Apr-22 02:09N 35°03' E 129°04'0 0.0
2018-Apr-21 06:41N 35°03' E 129°04'0 0.0
2018-Apr-21 06:20N 35°03' E 129°04'0 0.0
2018-Apr-21 05:59N 35°03' E 129°04'0 0.0
2018-Apr-21 04:53N 35°03' E 129°04'0 0.0
2018-Apr-21 04:29N 35°03' E 129°04'0 0.0
2018-Apr-21 03:53N 35°03' E 129°04'0 0.0
2018-Apr-21 03:14N 35°03' E 129°04'0 0.2
2018-Apr-21 02:56N 35°03' E 129°04'0 0.0
2018-Apr-21 02:23N 35°03' E 129°04'0 0.0
2018-Apr-21 01:53N 35°03' E 129°04'0 0.0
2018-Apr-21 01:26N 35°03' E 129°04'0 0.0
2018-Apr-21 00:50N 35°03' E 129°04'0 0.0
2018-Apr-21 00:29N 35°03' E 129°04'0 0.0
2018-Apr-20 23:32N 35°03' E 129°04'0 0.0
2018-Apr-20 23:17N 35°03' E 129°04'0 0.0
2018-Apr-20 21:56N 35°03' E 129°04'0 0.0
2018-Apr-20 21:20N 35°03' E 129°04'0 0.0
2018-Apr-20 20:53N 35°03' E 129°04'0 0.0
2018-Apr-20 20:29N 35°03' E 129°04'0 0.0
2018-Apr-20 19:56N 35°03' E 129°04'0 0.0
2018-Apr-20 19:23N 35°03' E 129°04'0 0.0
2018-Apr-20 18:59N 35°03' E 129°04'0 0.0
2018-Apr-20 18:26N 35°03' E 129°04'0 0.0
2018-Apr-20 17:59N 35°03' E 129°04'0 0.0
2018-Apr-20 17:29N 35°03' E 129°04'0 0.0
2018-Apr-20 16:47N 35°03' E 129°04'0 0.0
2018-Apr-20 16:29N 35°03' E 129°04'0 0.0
2018-Apr-20 14:23N 35°03' E 129°04'0 0.0
2018-Apr-20 13:59N 35°03' E 129°04'0 0.0
2018-Apr-20 13:26N 35°03' E 129°04'0 0.1
2018-Apr-20 12:53N 35°03' E 129°04'0 0.0
2018-Apr-20 12:29N 35°03' E 129°04'0 0.0
2018-Apr-20 11:59N 35°03' E 129°04'0 0.1
2018-Apr-20 11:29N 35°03' E 129°04'0 0.1
2018-Apr-20 10:59N 35°03' E 129°04'0 0.0
2018-Apr-20 10:26N 35°03' E 129°04'0 0.1
2018-Apr-20 10:00N 35°03' E 129°04'54 9.6
2018-Apr-20 04:23N 34°09' E 129°06'4 9.4
2018-Apr-20 04:00N 34°05' E 129°06'5 9.5
2018-Apr-20 03:30N 34°01' E 129°07'5 9.6
2018-Apr-20 03:00N 33°56' E 129°09'5 9.6
2018-Apr-20 02:30N 33°51' E 129°10'5 9.6
2018-Apr-20 02:00N 33°47' E 129°11'5 9.6
2018-Apr-20 01:30N 33°42' E 129°12'5 9.4
2018-Apr-20 01:00N 33°37' E 129°12'8 9.3
2018-Apr-20 00:09N 33°29' E 129°13'1 9.3
2018-Apr-20 00:00N 33°28' E 129°14'5 9.3
2018-Apr-19 23:30N 33°23' E 129°14'5 9.2
2018-Apr-19 22:57N 33°18' E 129°15'  
2018-Apr-15 16:42N 33°14' E 132°02'2 9.5
2018-Apr-15 16:30N 33°16' E 132°01'5 9.8
2018-Apr-15 15:58N 33°20' E 131°58'4 7.7
2018-Apr-15 15:30N 33°24' E 131°59'611.2
2018-Apr-15 15:01N 33°28' E 132°04'611.2
2018-Apr-15 14:30N 33°31' E 132°09'1310.5
2018-Apr-15 13:16N 33°40' E 132°21'3 9.8
2018-Apr-15 12:55N 33°42' E 132°24'4 9.7
2018-Apr-15 12:30N 33°45' E 132°27'5 9.5
2018-Apr-15 12:00N 33°49' E 132°31'5 9.3
2018-Apr-15 11:27N 33°53' E 132°35'4 8.5
2018-Apr-15 10:58N 33°55' E 132°39'4 7.9
2018-Apr-15 10:30N 33°57' E 132°42'4 8.0
2018-Apr-15 10:00N 34°01' E 132°45'2 0.1
2018-Apr-14 17:03N 34°01' E 132°47'1 9.0
2018-Apr-14 16:59N 34°01' E 132°46'4 8.6
2018-Apr-14 16:30N 33°58' E 132°43'4 8.5
2018-Apr-14 16:00N 33°55' E 132°39'4 8.8
2018-Apr-14 15:30N 33°52' E 132°36'5 9.0
2018-Apr-14 14:58N 33°49' E 132°31'4 9.2
2018-Apr-14 14:30N 33°47' E 132°27'6 9.4
2018-Apr-14 13:51N 33°44' E 132°20'4 9.6
2018-Apr-14 13:28N 33°43' E 132°16'1710.0
2018-Apr-14 11:48N 33°43' E 131°56'310.4
2018-Apr-14 11:30N 33°44' E 131°52'510.0
2018-Apr-14 11:00N 33°45' E 131°46'5 9.7
2018-Apr-14 10:30N 33°46' E 131°41'5 9.3
2018-Apr-14 10:00N 33°47' E 131°35'5 9.6
2018-Apr-14 09:30N 33°48' E 131°30'5 9.7
2018-Apr-14 09:00N 33°49' E 131°24'5 9.4
2018-Apr-14 08:30N 33°50' E 131°18'5 9.0
2018-Apr-14 08:00N 33°51' E 131°13'5 8.9
2018-Apr-14 07:29N 33°53' E 131°08'5 9.4
2018-Apr-14 07:00N 33°56' E 131°04'5 9.2
2018-Apr-14 06:30N 33°58' E 130°59'611.4
2018-Apr-14 06:00N 33°54' E 130°54'510.3
2018-Apr-14 05:30N 33°58' E 130°50'510.0
2018-Apr-14 05:00N 33°58' E 130°44'510.5
2018-Apr-14 04:30N 33°58' E 130°37'510.4
2018-Apr-14 04:00N 33°57' E 130°31'510.3
2018-Apr-14 03:31N 33°57' E 130°25'510.1
2018-Apr-14 03:01N 33°55' E 130°19'510.2
2018-Apr-14 02:30N 33°52' E 130°14'510.3
2018-Apr-14 02:00N 33°49' E 130°09'510.3
2018-Apr-14 01:30N 33°46' E 130°04'610.6
2018-Apr-14 00:59N 33°42' E 129°59'300 8.0
2018-Apr-12 11:13N 31°41' E 124°32'73 9.6
2018-Apr-12 03:34N 31°14' E 123°13'111.2
2018-Apr-12 03:31N 31°14' E 123°12'5 9.9
2018-Apr-12 03:00N 31°11' E 123°07'  

Dump ship's entire track history